Bei Facebook empfehlenBei Twitter postenGoogle plusPinterest

Das Wetter im Erzgebirge am 10.04.2017

Wetter und Klima am 10.04.2017 Holzhau im Erzgebirge (630m ü.NN)
Letzte gemessene Temperatur und Uhrzeit der Messung23:45:00 Uhr5.00 °C
Temperatur (Maximum / Höchstwert) und Uhrzeit der Messung14:30:00 Uhr20.50 °C
Temperatur (Minimum / Tiefstwert) und Uhrzeit der Messung06:45:003.00 °C
Errechneter Absolutwert der Temperaturschwankungen zwischen Tmin und Tmax des Tages17.50 K
Errechnete Tagesmitteltemperatur10.58229 °C
Gesamt - Niederschlag des Tages (in flüssiger Form)0.00 Liter / m²
Luftdruck (Maximum / Höchstwert) und Zeitpunkt der Messung00:00:00 Uhr1018.00 hPa
Luftdruck (Minimum / Tiefstwert) und Zeitpunkt der Messung16:45:00 Uhr1011.40 hPa
Errechneter Absolutwert der Luftdruckschwankungen des Tages6.60 hPa
Höchste gemessene Windgeschwindigkeit und Uhrzeit der Messung17:15:00 Uhr13.68 km/h
Errechnete Windhäufigkeit in Relation zu den Messwerten des Tages43.75000 %
Niedrigste Windkühle (Windchill) und Zeitpunkt der Messung06:45:00 Uhr3.00 °C
Taupunkt (Maximum / Höchstwert) und Uhrzeit der Messung09:00:00 Uhr9.50 °C
Taupunkt (Minimum / Tiefstwert) und Uhrzeit der Messung23:45:001.50 °C
Anzahl der automatisch eingelesenen Messwerte 96

Detaillierte Wetter- und Klima- Messwerte für den 10.04.2017 in Holzhau im Erzgebirge (630m ü.NN)
ZeitTemperaturLuftdruckRel. LuftfeuchteWindWindrichtungWindchillTaupunktNiederschlag l/m²
23:45:005.00 °C1014.40 hPa78.00 %1.50 °C 
23:30:005.30 °C1014.20 hPa77.00 %1.60 °C 
23:15:005.80 °C1014.20 hPa77.00 %2.10 °C 
23:00:005.90 °C1014.30 hPa76.00 %2.00 °C 
22:45:006.20 °C1014.10 hPa78.00 %2.70 °C 
22:30:006.40 °C1014.20 hPa78.00 %2.90 °C 
22:15:006.60 °C1014.10 hPa78.00 %4.68 km/hN6.60 °C3.00 °C 
22:00:006.70 °C1014.20 hPa78.00 %3.10 °C 
21:45:006.80 °C1014.10 hPa79.00 %3.40 °C 
21:30:006.90 °C1014.20 hPa79.00 %6.84 km/hWNW5.70 °C3.50 °C 
21:15:006.90 °C1014.00 hPa82.00 %1.44 km/hWNW6.90 °C4.00 °C 
21:00:007.50 °C1013.90 hPa79.00 %5.40 km/hN6.80 °C4.10 °C 
20:45:007.90 °C1013.80 hPa80.00 %6.84 km/hNW6.80 °C4.70 °C 
20:30:008.20 °C1013.50 hPa79.00 %1.44 km/hNNW8.20 °C4.80 °C 
20:15:008.50 °C1013.40 hPa80.00 %8.28 km/hW7.20 °C5.30 °C 
20:00:009.10 °C1013.40 hPa77.00 %5.30 °C 
19:45:009.30 °C1013.10 hPa76.00 %5.30 °C 
19:30:009.60 °C1013.30 hPa75.00 %5.04 km/hW9.30 °C5.40 °C 
19:15:0010.20 °C1013.20 hPa74.00 %5.80 °C 
19:00:0010.80 °C1013.40 hPa75.00 %2.88 km/hNW10.80 °C6.60 °C 
18:45:0011.00 °C1012.90 hPa73.00 %1.08 km/hW11.00 °C6.40 °C 
18:30:0011.50 °C1013.10 hPa72.00 %6.60 °C 
18:15:0012.40 °C1012.70 hPa73.00 %5.04 km/hWNW12.50 °C7.70 °C 
18:00:0013.10 °C1012.60 hPa68.00 %7.30 °C 
17:45:0014.10 °C1012.80 hPa65.00 %7.60 °C 
17:30:0015.80 °C1012.30 hPa61.00 %8.30 °C 
17:15:0017.50 °C1012.10 hPa56.00 %13.68 km/hNW17.30 °C8.60 °C 
17:00:0018.80 °C1011.90 hPa52.00 %8.70 °C 
16:45:0019.60 °C1011.40 hPa43.00 %6.70 °C 
16:30:0019.90 °C1011.70 hPa42.00 %6.60 °C 
16:15:0020.10 °C1011.70 hPa40.00 %2.52 km/hSSW20.10 °C6.10 °C 
16:00:0020.40 °C1012.00 hPa40.00 %3.60 km/hW20.40 °C6.40 °C 
15:45:0020.30 °C1012.20 hPa40.00 %5.76 km/hWNW21.30 °C6.30 °C 
15:30:0020.40 °C1012.20 hPa39.00 %5.76 km/hNW21.50 °C6.00 °C 
15:15:0020.30 °C1012.40 hPa37.00 %5.76 km/hNW21.30 °C5.10 °C 
15:00:0020.40 °C1012.50 hPa36.00 %2.52 km/hW20.40 °C4.80 °C 
14:45:0020.40 °C1012.50 hPa39.00 %6.84 km/hWSW21.30 °C6.00 °C 
14:30:0020.50 °C1013.00 hPa44.00 %9.72 km/hSW21.20 °C7.80 °C 
14:15:0020.20 °C1012.90 hPa44.00 %9.00 km/hW20.90 °C7.60 °C 
14:00:0019.90 °C1013.20 hPa43.00 %7.00 °C 
13:45:0019.90 °C1013.00 hPa42.00 %10.44 km/hWNW20.40 °C6.60 °C 
13:30:0019.80 °C1013.10 hPa43.00 %12.60 km/hNNW20.10 °C6.90 °C 
13:15:0019.40 °C1013.20 hPa44.00 %1.08 km/hNW19.40 °C6.80 °C 
13:00:0019.40 °C1013.40 hPa45.00 %5.76 km/hWNW20.30 °C7.20 °C 
12:45:0019.40 °C1013.50 hPa44.00 %8.64 km/hNNW20.00 °C6.80 °C 
12:30:0019.20 °C1013.50 hPa43.00 %9.72 km/hWSW19.60 °C6.30 °C 
12:15:0019.10 °C1013.50 hPa45.00 %9.00 km/hW19.60 °C6.90 °C 
12:00:0018.50 °C1013.50 hPa44.00 %4.68 km/hWSW18.50 °C6.00 °C 
11:45:0018.60 °C1013.50 hPa46.00 %7.56 km/hWNW19.20 °C6.80 °C 
11:30:0018.30 °C1013.50 hPa50.00 %11.88 km/hW18.40 °C7.70 °C 
11:15:0018.10 °C1013.70 hPa49.00 %0.72 km/hW18.10 °C7.20 °C 
11:00:0017.80 °C1013.90 hPa53.00 %10.80 km/hNW17.90 °C8.10 °C 
10:45:0017.30 °C1014.00 hPa54.00 %1.08 km/hNW17.30 °C7.90 °C 
10:30:0016.70 °C1014.10 hPa57.00 %8.10 °C 
10:15:0016.30 °C1014.20 hPa57.00 %8.64 km/hWNW16.30 °C7.80 °C 
10:00:0015.60 °C1014.10 hPa60.00 %6.48 km/hWSW15.80 °C7.90 °C 
09:45:0014.90 °C1014.00 hPa64.00 %3.96 km/hSW14.90 °C8.20 °C 
09:30:0014.10 °C1014.10 hPa70.00 %3.24 km/hWNW14.10 °C8.70 °C 
09:15:0012.70 °C1013.80 hPa79.00 %12.24 km/hSSW11.60 °C9.20 °C 
09:00:0011.10 °C1013.90 hPa90.00 %3.96 km/hW11.10 °C9.50 °C 
08:45:009.30 °C1013.90 hPa95.00 %8.50 °C 
08:30:008.10 °C1014.10 hPa95.00 %7.30 °C 
08:15:007.10 °C1014.10 hPa95.00 %6.40 °C 
08:00:006.10 °C1014.40 hPa95.00 %5.40 °C 
07:45:005.20 °C1014.50 hPa94.00 %4.30 °C 
07:30:004.50 °C1014.60 hPa94.00 %3.60 °C 
07:15:003.60 °C1014.70 hPa94.00 %2.70 °C 
07:00:003.10 °C1014.70 hPa93.00 %2.10 °C 
06:45:003.00 °C1014.70 hPa93.00 %2.00 °C 
06:30:003.10 °C1014.80 hPa93.00 %2.10 °C 
06:15:003.30 °C1014.90 hPa93.00 %2.30 °C 
06:00:003.40 °C1015.00 hPa93.00 %2.40 °C 
05:45:003.00 °C1015.00 hPa93.00 %2.00 °C 
05:30:003.20 °C1015.20 hPa93.00 %2.20 °C 
05:15:003.20 °C1015.20 hPa93.00 %2.20 °C 
05:00:003.30 °C1015.30 hPa93.00 %2.30 °C 
04:45:003.50 °C1015.60 hPa93.00 %2.50 °C 
04:30:003.80 °C1015.70 hPa93.00 %2.80 °C 
04:15:003.80 °C1015.70 hPa93.00 %2.80 °C 
04:00:004.10 °C1015.80 hPa93.00 %3.10 °C 
03:45:004.10 °C1015.90 hPa92.00 %2.90 °C 
03:30:004.30 °C1016.10 hPa92.00 %3.10 °C 
03:15:004.30 °C1016.20 hPa92.00 %1.44 km/hOSO4.30 °C3.10 °C 
03:00:004.20 °C1016.40 hPa92.00 %3.00 °C 
02:45:004.10 °C1016.50 hPa92.00 %2.90 °C 
02:30:003.90 °C1016.60 hPa92.00 %2.70 °C 
02:15:004.10 °C1016.80 hPa92.00 %2.90 °C 
02:00:004.30 °C1017.10 hPa91.00 %3.00 °C 
01:45:004.60 °C1017.20 hPa91.00 %3.30 °C 
01:30:004.70 °C1017.30 hPa91.00 %3.40 °C 
01:15:004.90 °C1017.70 hPa91.00 %3.60 °C 
01:00:005.10 °C1017.70 hPa91.00 %3.80 °C 
00:45:005.40 °C1017.80 hPa91.00 %4.10 °C 
00:30:005.80 °C1017.80 hPa91.00 %4.40 °C 
00:15:005.90 °C1017.90 hPa91.00 %4.50 °C 
00:00:006.10 °C1018.00 hPa91.00 %5.04 km/hSO5.30 °C4.70 °C 

Permanenter Link zu dieser Seite: Wetter im Erzgebirge am 10.04.2017
Performance-Info: Die Erstellung der Seite / Statistik(en) / Tabelle(n) erforderte 5 Datenbankserver-Abfrage(n) und dauerte 124 Millisekunden. (Dieser Messwert ist von der Gesamt-Auslastung des Servers abhängig.)
Erzgebirge - Wetter | Erzgebirge - Wetter (Mobilgeräte) | Komplette Klimadatenbank